West Capella — 3E0L — position and weather

sailwx.info

Track history (hours):
 
Tides and Currents Weather Stations Pressure Air Temp Water Temp Dewpoint Dewpoint Depression Visibility Wind Speed Wind Dir Waves Ship Positions

West Capella

Last reported at 2017-Oct-14 10:40 UTC. Time now 2017-Oct-19 09:29 UTC.
Position N 08°09' W 014°42'.

Length 227 m; draft 15 m.

Type: Ship. MMSI: 356736000.

Date/timePositionNaut miles runAvg speedWind from/ knotsBaromVisibWave heightAir tempDewpointWater temp
2017-Oct-14 10:40N 08°09' W 014°42'  
2017-Oct-07 22:32N 27°35' W 015°14'2 8.6
2017-Oct-07 22:18N 27°37' W 015°13'3 8.5
2017-Oct-07 22:00N 27°40' W 015°12'4 8.3
2017-Oct-07 21:29N 27°44' W 015°10'4 8.5
2017-Oct-07 21:00N 27°48' W 015°09'4 8.3
2017-Oct-07 20:30N 27°51' W 015°07'4 8.2
2017-Oct-07 20:00N 27°55' W 015°06'4 8.4
2017-Oct-07 19:30N 27°59' W 015°04'4 7.3
2017-Oct-07 19:00N 28°03' W 015°06'4 7.4
2017-Oct-07 18:30N 28°04' W 015°10'3 6.1
2017-Oct-07 18:00N 28°05' W 015°13'3 6.5
2017-Oct-07 17:30N 28°05' W 015°17'4 7.3
2017-Oct-07 17:00N 28°06' W 015°21'3 6.7
2017-Oct-07 16:30N 28°07' W 015°24'1 2.4
2017-Oct-07 16:00N 28°08' W 015°24'0 0.0
2017-Oct-07 15:30N 28°08' W 015°24'0 0.0
2017-Oct-07 15:00N 28°08' W 015°24'0 0.0
2017-Oct-07 14:30N 28°08' W 015°24'0 0.0
2017-Oct-07 14:00N 28°08' W 015°24'0 0.0
2017-Oct-07 13:30N 28°08' W 015°24'0 0.0
2017-Oct-07 13:00N 28°08' W 015°24'0 0.0
2017-Oct-07 12:30N 28°08' W 015°24'0 0.0
2017-Oct-07 12:00N 28°08' W 015°24'0 0.0
2017-Oct-07 11:30N 28°08' W 015°24'0 0.0
2017-Oct-07 11:00N 28°08' W 015°24'0 0.0
2017-Oct-07 10:30N 28°08' W 015°24'0 0.0
2017-Oct-07 10:00N 28°08' W 015°24'0 0.0
2017-Oct-07 09:30N 28°08' W 015°24'0 0.0
2017-Oct-07 09:00N 28°08' W 015°24'0 0.0
2017-Oct-07 08:30N 28°08' W 015°24'0 0.0
2017-Oct-07 08:00N 28°08' W 015°24'0 0.0
2017-Oct-07 07:30N 28°08' W 015°24'0 0.0
2017-Oct-07 07:00N 28°08' W 015°24'0 0.0
2017-Oct-07 06:30N 28°08' W 015°24'0 0.0
2017-Oct-07 06:00N 28°08' W 015°24'0 0.0
2017-Oct-07 05:30N 28°08' W 015°24'0 0.0
2017-Oct-07 05:00N 28°08' W 015°24'0 0.0
2017-Oct-07 04:30N 28°08' W 015°24'0 0.0
2017-Oct-07 04:00N 28°08' W 015°24'0 0.0
2017-Oct-07 03:30N 28°08' W 015°24'0 0.0
2017-Oct-07 03:00N 28°08' W 015°24'0 0.0
2017-Oct-07 02:30N 28°08' W 015°24'0 0.0
2017-Oct-07 02:00N 28°08' W 015°24'0 0.0
2017-Oct-07 01:30N 28°08' W 015°24'0 0.0
2017-Oct-07 01:00N 28°08' W 015°24'0 0.0
2017-Oct-07 00:30N 28°08' W 015°24'0 0.0
2017-Oct-07 00:00N 28°08' W 015°24'0 0.0
2017-Oct-06 23:30N 28°08' W 015°24'0 0.0
2017-Oct-06 23:00N 28°08' W 015°24'0 0.0
2017-Oct-06 22:30N 28°08' W 015°24'0 0.0
2017-Oct-06 22:00N 28°08' W 015°24'0 0.0
2017-Oct-06 21:30N 28°08' W 015°24'0 0.0
2017-Oct-06 21:00N 28°08' W 015°24'0 0.0
2017-Oct-06 20:30N 28°08' W 015°24'0 0.0
2017-Oct-06 20:00N 28°08' W 015°24'0 0.0
2017-Oct-06 19:30N 28°08' W 015°24'0 0.0
2017-Oct-06 19:00N 28°08' W 015°24'0 0.0
2017-Oct-06 18:30N 28°08' W 015°24'0 0.0
2017-Oct-06 18:00N 28°08' W 015°24'0 0.0
2017-Oct-06 17:30N 28°08' W 015°24'0 0.0
2017-Oct-06 17:00N 28°08' W 015°24'0 0.0
2017-Oct-06 16:30N 28°08' W 015°24'0 0.0
2017-Oct-06 16:00N 28°08' W 015°24'0 0.0
2017-Oct-06 15:30N 28°08' W 015°24'0 0.0
2017-Oct-06 15:00N 28°08' W 015°24'0 0.0
2017-Oct-06 14:30N 28°08' W 015°24'0 0.0
2017-Oct-06 14:00N 28°08' W 015°24'0 0.0
2017-Oct-06 13:30N 28°08' W 015°24'0 0.0
2017-Oct-06 13:00N 28°08' W 015°24'0 0.0
2017-Oct-06 12:30N 28°08' W 015°24'0 0.0
2017-Oct-06 12:00N 28°08' W 015°24'0 0.0
2017-Oct-06 11:30N 28°08' W 015°24'0 0.0
2017-Oct-06 11:00N 28°08' W 015°24'0 0.0
2017-Oct-06 10:30N 28°08' W 015°24'0 0.0
2017-Oct-06 10:00N 28°08' W 015°24'0 0.0
2017-Oct-06 09:30N 28°08' W 015°24'0 0.0
2017-Oct-06 09:00N 28°08' W 015°24'0 0.0
2017-Oct-06 08:30N 28°08' W 015°24'0 0.0
2017-Oct-06 08:00N 28°08' W 015°24'0 0.0
2017-Oct-06 07:30N 28°08' W 015°24'0 0.0
2017-Oct-06 07:00N 28°08' W 015°24'0 0.0
2017-Oct-06 06:30N 28°08' W 015°24'0 0.0
2017-Oct-06 06:00N 28°08' W 015°24'0 0.0
2017-Oct-06 05:30N 28°08' W 015°24'0 0.0
2017-Oct-06 05:00N 28°08' W 015°24'0 0.0
2017-Oct-06 04:30N 28°08' W 015°24'0 0.0
2017-Oct-06 04:00N 28°08' W 015°24'0 0.0
2017-Oct-06 03:30N 28°08' W 015°24'0 0.0
2017-Oct-06 03:00N 28°08' W 015°24'0 0.0
2017-Oct-06 02:30N 28°08' W 015°24'0 0.0
2017-Oct-06 02:00N 28°08' W 015°24'0 0.0
2017-Oct-06 01:30N 28°08' W 015°24'0 0.0
2017-Oct-06 01:00N 28°08' W 015°24'0 0.0
2017-Oct-06 00:31N 28°08' W 015°24'0 0.0
2017-Oct-06 00:00N 28°08' W 015°24'0 0.0
2017-Oct-05 23:30N 28°08' W 015°24'0 0.0
2017-Oct-05 23:01N 28°08' W 015°24'0 0.0
2017-Oct-05 22:30N 28°08' W 015°24'0 0.0
2017-Oct-05 22:00N 28°08' W 015°24'0 0.0
2017-Oct-05 21:30N 28°08' W 015°24'0 0.0
2017-Oct-05 21:00N 28°08' W 015°24'0 0.0
2017-Oct-05 20:30N 28°08' W 015°24'0 0.0
2017-Oct-05 20:00N 28°08' W 015°24'0 0.0
2017-Oct-05 19:30N 28°08' W 015°24'0 0.0
2017-Oct-05 19:00N 28°08' W 015°24'0 0.0
2017-Oct-05 18:30N 28°08' W 015°24'0 0.0
2017-Oct-05 18:00N 28°08' W 015°24'0 0.0
2017-Oct-05 17:30N 28°08' W 015°24'0 0.0
2017-Oct-05 17:00N 28°08' W 015°24'0 0.0
2017-Oct-05 15:30N 28°08' W 015°24'0 0.0
2017-Oct-05 15:00N 28°08' W 015°24'0 0.0
2017-Oct-05 14:30N 28°08' W 015°24'0 0.0
2017-Oct-05 14:00N 28°08' W 015°24'0 0.0
2017-Oct-05 13:30N 28°08' W 015°24'0 0.0
2017-Oct-05 13:00N 28°08' W 015°24'0 0.0
2017-Oct-05 12:30N 28°08' W 015°24'0 0.0
2017-Oct-05 12:00N 28°08' W 015°24'0 0.0
2017-Oct-05 11:30N 28°08' W 015°24'0 0.0
2017-Oct-05 11:00N 28°08' W 015°24'0 0.0
2017-Oct-05 10:30N 28°08' W 015°24'0 0.0
2017-Oct-05 10:00N 28°08' W 015°24'0 0.0
2017-Oct-05 09:30N 28°08' W 015°24'0 0.0
2017-Oct-05 09:00N 28°08' W 015°24'0 0.0
2017-Oct-05 08:30N 28°08' W 015°24'0 0.0
2017-Oct-05 08:00N 28°08' W 015°24'0 0.0
2017-Oct-05 07:31N 28°08' W 015°24'0 0.0
2017-Oct-05 07:01N 28°08' W 015°24'0 0.0
2017-Oct-05 06:30N 28°08' W 015°24'0 0.0
2017-Oct-05 06:00N 28°08' W 015°24'0 0.0
2017-Oct-05 05:30N 28°08' W 015°24'0 0.0
2017-Oct-05 05:00N 28°08' W 015°24'0 0.0
2017-Oct-05 04:31N 28°08' W 015°24'0 0.0
2017-Oct-05 04:00N 28°08' W 015°24'0 0.0
2017-Oct-05 03:30N 28°08' W 015°24'0 0.0
2017-Oct-05 03:00N 28°08' W 015°24'0 0.0
2017-Oct-05 02:30N 28°08' W 015°24'0 0.0
2017-Oct-05 02:00N 28°08' W 015°24'0 0.0
2017-Oct-05 01:30N 28°08' W 015°24'0 0.0
2017-Oct-05 01:00N 28°08' W 015°24'0 0.0
2017-Oct-05 00:30N 28°08' W 015°24'0 0.0
2017-Oct-05 00:00N 28°08' W 015°24'0 0.0
2017-Oct-04 23:30N 28°08' W 015°24'0 0.0
2017-Oct-04 23:00N 28°08' W 015°24'0 0.0
2017-Oct-04 22:30N 28°08' W 015°24'0 0.0
2017-Oct-04 22:00N 28°08' W 015°24'0 0.0
2017-Oct-04 21:30N 28°08' W 015°24'0 0.0
2017-Oct-04 21:00N 28°08' W 015°24'0 0.0
2017-Oct-04 20:30N 28°08' W 015°24'0 0.0
2017-Oct-04 20:00N 28°08' W 015°24'0 0.0
2017-Oct-04 19:30N 28°08' W 015°24'0 0.0
2017-Oct-04 19:00N 28°08' W 015°24'0 0.0
2017-Oct-04 18:30N 28°08' W 015°24'0 0.0
2017-Oct-04 18:01N 28°08' W 015°24'0 0.0
2017-Oct-04 17:31N 28°08' W 015°24'0 0.0
2017-Oct-04 17:01N 28°08' W 015°24'0 0.0
2017-Oct-04 16:30N 28°08' W 015°24'0 0.0
2017-Oct-04 16:00N 28°08' W 015°24'0 0.0
2017-Oct-04 15:30N 28°08' W 015°24'0 0.0
2017-Oct-04 15:00N 28°08' W 015°24'0 0.0
2017-Oct-04 14:30N 28°08' W 015°24'0 0.0
2017-Oct-04 14:00N 28°08' W 015°24'0 0.0
2017-Oct-04 13:30N 28°08' W 015°24'0 0.0
2017-Oct-04 13:00N 28°08' W 015°24'0 0.0
2017-Oct-04 12:30N 28°08' W 015°24'0 0.0
2017-Oct-04 12:00N 28°08' W 015°24'0 0.0
2017-Oct-04 11:30N 28°08' W 015°24'0 0.0
2017-Oct-04 11:00N 28°08' W 015°24'  
Track history (hours):
 
Tides and Currents Weather Stations Pressure Air Temp Water Temp Dewpoint Dewpoint Depression Visibility Wind Speed Wind Dir Waves Ship Positions

West Capella

Last reported at 2017-Oct-14 10:40 UTC. Time now 2017-Oct-19 09:29 UTC.
Position N 08°09' W 014°42'.

Length 227 m; draft 15 m.

Type: Ship. MMSI: 356736000.

Date/timePositionNaut miles runAvg speedWind from/ knotsBaromVisibWave heightAir tempDewpointWater temp
2017-Oct-14 10:40N 08°09' W 014°42'  
2017-Oct-07 22:32N 27°35' W 015°14'2 8.6
2017-Oct-07 22:18N 27°37' W 015°13'3 8.5
2017-Oct-07 22:00N 27°40' W 015°12'4 8.3
2017-Oct-07 21:29N 27°44' W 015°10'4 8.5
2017-Oct-07 21:00N 27°48' W 015°09'4 8.3
2017-Oct-07 20:30N 27°51' W 015°07'4 8.2
2017-Oct-07 20:00N 27°55' W 015°06'4 8.4
2017-Oct-07 19:30N 27°59' W 015°04'4 7.3
2017-Oct-07 19:00N 28°03' W 015°06'4 7.4
2017-Oct-07 18:30N 28°04' W 015°10'3 6.1
2017-Oct-07 18:00N 28°05' W 015°13'3 6.5
2017-Oct-07 17:30N 28°05' W 015°17'4 7.3
2017-Oct-07 17:00N 28°06' W 015°21'3 6.7
2017-Oct-07 16:30N 28°07' W 015°24'1 2.4
2017-Oct-07 16:00N 28°08' W 015°24'0 0.0
2017-Oct-07 15:30N 28°08' W 015°24'0 0.0
2017-Oct-07 15:00N 28°08' W 015°24'0 0.0
2017-Oct-07 14:30N 28°08' W 015°24'0 0.0
2017-Oct-07 14:00N 28°08' W 015°24'0 0.0
2017-Oct-07 13:30N 28°08' W 015°24'0 0.0
2017-Oct-07 13:00N 28°08' W 015°24'0 0.0
2017-Oct-07 12:30N 28°08' W 015°24'0 0.0
2017-Oct-07 12:00N 28°08' W 015°24'0 0.0
2017-Oct-07 11:30N 28°08' W 015°24'0 0.0
2017-Oct-07 11:00N 28°08' W 015°24'0 0.0
2017-Oct-07 10:30N 28°08' W 015°24'0 0.0
2017-Oct-07 10:00N 28°08' W 015°24'0 0.0
2017-Oct-07 09:30N 28°08' W 015°24'0 0.0
2017-Oct-07 09:00N 28°08' W 015°24'0 0.0
2017-Oct-07 08:30N 28°08' W 015°24'0 0.0
2017-Oct-07 08:00N 28°08' W 015°24'0 0.0
2017-Oct-07 07:30N 28°08' W 015°24'0 0.0
2017-Oct-07 07:00N 28°08' W 015°24'0 0.0
2017-Oct-07 06:30N 28°08' W 015°24'0 0.0
2017-Oct-07 06:00N 28°08' W 015°24'0 0.0
2017-Oct-07 05:30N 28°08' W 015°24'0 0.0
2017-Oct-07 05:00N 28°08' W 015°24'0 0.0
2017-Oct-07 04:30N 28°08' W 015°24'0 0.0
2017-Oct-07 04:00N 28°08' W 015°24'0 0.0
2017-Oct-07 03:30N 28°08' W 015°24'0 0.0
2017-Oct-07 03:00N 28°08' W 015°24'0 0.0
2017-Oct-07 02:30N 28°08' W 015°24'0 0.0
2017-Oct-07 02:00N 28°08' W 015°24'0 0.0
2017-Oct-07 01:30N 28°08' W 015°24'0 0.0
2017-Oct-07 01:00N 28°08' W 015°24'0 0.0
2017-Oct-07 00:30N 28°08' W 015°24'0 0.0
2017-Oct-07 00:00N 28°08' W 015°24'0 0.0
2017-Oct-06 23:30N 28°08' W 015°24'0 0.0
2017-Oct-06 23:00N 28°08' W 015°24'0 0.0
2017-Oct-06 22:30N 28°08' W 015°24'0 0.0
2017-Oct-06 22:00N 28°08' W 015°24'0 0.0
2017-Oct-06 21:30N 28°08' W 015°24'0 0.0
2017-Oct-06 21:00N 28°08' W 015°24'0 0.0
2017-Oct-06 20:30N 28°08' W 015°24'0 0.0
2017-Oct-06 20:00N 28°08' W 015°24'0 0.0
2017-Oct-06 19:30N 28°08' W 015°24'0 0.0
2017-Oct-06 19:00N 28°08' W 015°24'0 0.0
2017-Oct-06 18:30N 28°08' W 015°24'0 0.0
2017-Oct-06 18:00N 28°08' W 015°24'0 0.0
2017-Oct-06 17:30N 28°08' W 015°24'0 0.0
2017-Oct-06 17:00N 28°08' W 015°24'0 0.0
2017-Oct-06 16:30N 28°08' W 015°24'0 0.0
2017-Oct-06 16:00N 28°08' W 015°24'0 0.0
2017-Oct-06 15:30N 28°08' W 015°24'0 0.0
2017-Oct-06 15:00N 28°08' W 015°24'0 0.0
2017-Oct-06 14:30N 28°08' W 015°24'0 0.0
2017-Oct-06 14:00N 28°08' W 015°24'0 0.0
2017-Oct-06 13:30N 28°08' W 015°24'0 0.0
2017-Oct-06 13:00N 28°08' W 015°24'0 0.0
2017-Oct-06 12:30N 28°08' W 015°24'0 0.0
2017-Oct-06 12:00N 28°08' W 015°24'0 0.0
2017-Oct-06 11:30N 28°08' W 015°24'0 0.0
2017-Oct-06 11:00N 28°08' W 015°24'0 0.0
2017-Oct-06 10:30N 28°08' W 015°24'0 0.0
2017-Oct-06 10:00N 28°08' W 015°24'0 0.0
2017-Oct-06 09:30N 28°08' W 015°24'0 0.0
2017-Oct-06 09:00N 28°08' W 015°24'0 0.0
2017-Oct-06 08:30N 28°08' W 015°24'0 0.0
2017-Oct-06 08:00N 28°08' W 015°24'0 0.0
2017-Oct-06 07:30N 28°08' W 015°24'0 0.0
2017-Oct-06 07:00N 28°08' W 015°24'0 0.0
2017-Oct-06 06:30N 28°08' W 015°24'0 0.0
2017-Oct-06 06:00N 28°08' W 015°24'0 0.0
2017-Oct-06 05:30N 28°08' W 015°24'0 0.0
2017-Oct-06 05:00N 28°08' W 015°24'0 0.0
2017-Oct-06 04:30N 28°08' W 015°24'0 0.0
2017-Oct-06 04:00N 28°08' W 015°24'0 0.0
2017-Oct-06 03:30N 28°08' W 015°24'0 0.0
2017-Oct-06 03:00N 28°08' W 015°24'0 0.0
2017-Oct-06 02:30N 28°08' W 015°24'0 0.0
2017-Oct-06 02:00N 28°08' W 015°24'0 0.0
2017-Oct-06 01:30N 28°08' W 015°24'0 0.0
2017-Oct-06 01:00N 28°08' W 015°24'0 0.0
2017-Oct-06 00:31N 28°08' W 015°24'0 0.0
2017-Oct-06 00:00N 28°08' W 015°24'0 0.0
2017-Oct-05 23:30N 28°08' W 015°24'0 0.0
2017-Oct-05 23:01N 28°08' W 015°24'0 0.0
2017-Oct-05 22:30N 28°08' W 015°24'0 0.0
2017-Oct-05 22:00N 28°08' W 015°24'0 0.0
2017-Oct-05 21:30N 28°08' W 015°24'0 0.0
2017-Oct-05 21:00N 28°08' W 015°24'0 0.0
2017-Oct-05 20:30N 28°08' W 015°24'0 0.0
2017-Oct-05 20:00N 28°08' W 015°24'0 0.0
2017-Oct-05 19:30N 28°08' W 015°24'0 0.0
2017-Oct-05 19:00N 28°08' W 015°24'0 0.0
2017-Oct-05 18:30N 28°08' W 015°24'0 0.0
2017-Oct-05 18:00N 28°08' W 015°24'0 0.0
2017-Oct-05 17:30N 28°08' W 015°24'0 0.0
2017-Oct-05 17:00N 28°08' W 015°24'0 0.0
2017-Oct-05 15:30N 28°08' W 015°24'0 0.0
2017-Oct-05 15:00N 28°08' W 015°24'0 0.0
2017-Oct-05 14:30N 28°08' W 015°24'0 0.0
2017-Oct-05 14:00N 28°08' W 015°24'0 0.0
2017-Oct-05 13:30N 28°08' W 015°24'0 0.0
2017-Oct-05 13:00N 28°08' W 015°24'0 0.0
2017-Oct-05 12:30N 28°08' W 015°24'0 0.0
2017-Oct-05 12:00N 28°08' W 015°24'0 0.0
2017-Oct-05 11:30N 28°08' W 015°24'0 0.0
2017-Oct-05 11:00N 28°08' W 015°24'0 0.0
2017-Oct-05 10:30N 28°08' W 015°24'0 0.0
2017-Oct-05 10:00N 28°08' W 015°24'0 0.0
2017-Oct-05 09:30N 28°08' W 015°24'0 0.0
2017-Oct-05 09:00N 28°08' W 015°24'0 0.0
2017-Oct-05 08:30N 28°08' W 015°24'0 0.0
2017-Oct-05 08:00N 28°08' W 015°24'0 0.0
2017-Oct-05 07:31N 28°08' W 015°24'0 0.0
2017-Oct-05 07:01N 28°08' W 015°24'0 0.0
2017-Oct-05 06:30N 28°08' W 015°24'0 0.0
2017-Oct-05 06:00N 28°08' W 015°24'0 0.0
2017-Oct-05 05:30N 28°08' W 015°24'0 0.0
2017-Oct-05 05:00N 28°08' W 015°24'0 0.0
2017-Oct-05 04:31N 28°08' W 015°24'0 0.0
2017-Oct-05 04:00N 28°08' W 015°24'0 0.0
2017-Oct-05 03:30N 28°08' W 015°24'0 0.0
2017-Oct-05 03:00N 28°08' W 015°24'0 0.0
2017-Oct-05 02:30N 28°08' W 015°24'0 0.0
2017-Oct-05 02:00N 28°08' W 015°24'0 0.0
2017-Oct-05 01:30N 28°08' W 015°24'0 0.0
2017-Oct-05 01:00N 28°08' W 015°24'0 0.0
2017-Oct-05 00:30N 28°08' W 015°24'0 0.0
2017-Oct-05 00:00N 28°08' W 015°24'0 0.0
2017-Oct-04 23:30N 28°08' W 015°24'0 0.0
2017-Oct-04 23:00N 28°08' W 015°24'0 0.0
2017-Oct-04 22:30N 28°08' W 015°24'0 0.0
2017-Oct-04 22:00N 28°08' W 015°24'0 0.0
2017-Oct-04 21:30N 28°08' W 015°24'0 0.0
2017-Oct-04 21:00N 28°08' W 015°24'0 0.0
2017-Oct-04 20:30N 28°08' W 015°24'0 0.0
2017-Oct-04 20:00N 28°08' W 015°24'0 0.0
2017-Oct-04 19:30N 28°08' W 015°24'0 0.0
2017-Oct-04 19:00N 28°08' W 015°24'0 0.0
2017-Oct-04 18:30N 28°08' W 015°24'0 0.0
2017-Oct-04 18:01N 28°08' W 015°24'0 0.0
2017-Oct-04 17:31N 28°08' W 015°24'0 0.0
2017-Oct-04 17:01N 28°08' W 015°24'0 0.0
2017-Oct-04 16:30N 28°08' W 015°24'0 0.0
2017-Oct-04 16:00N 28°08' W 015°24'0 0.0
2017-Oct-04 15:30N 28°08' W 015°24'0 0.0
2017-Oct-04 15:00N 28°08' W 015°24'0 0.0
2017-Oct-04 14:30N 28°08' W 015°24'0 0.0
2017-Oct-04 14:00N 28°08' W 015°24'0 0.0
2017-Oct-04 13:30N 28°08' W 015°24'0 0.0
2017-Oct-04 13:00N 28°08' W 015°24'0 0.0
2017-Oct-04 12:30N 28°08' W 015°24'0 0.0
2017-Oct-04 12:00N 28°08' W 015°24'0 0.0
2017-Oct-04 11:30N 28°08' W 015°24'0 0.0
2017-Oct-04 11:00N 28°08' W 015°24'  

Dump ship's entire track history